createdAt,value
2019-04-26T00:01:40.258Z,69.83
2019-04-26T00:04:10.279Z,69.83
2019-04-26T00:06:39.882Z,69.79
2019-04-26T00:09:28.583Z,69.84
2019-04-26T00:12:16.396Z,69.75
2019-04-26T00:14:56.811Z,69.71
2019-04-26T00:17:36.041Z,69.83
2019-04-26T00:20:12.975Z,70.08
2019-04-26T00:22:42.472Z,70.31
2019-04-26T00:25:12.481Z,70.24
2019-04-26T00:27:42.034Z,70.74
2019-04-26T00:30:12.066Z,70.98
2019-04-26T00:32:42.342Z,70.75
2019-04-26T00:35:12.929Z,71.12
2019-04-26T00:37:43.105Z,70.95
2019-04-26T00:40:13.339Z,70.96
2019-04-26T00:42:47.256Z,71.20
2019-04-26T00:45:18.915Z,71.46
2019-04-26T00:47:49.180Z,71.25
2019-04-26T00:50:19.106Z,71.15
2019-04-26T00:52:49.426Z,71.22
2019-04-26T00:55:21.958Z,71.16
2019-04-26T00:57:52.679Z,70.99
2019-04-26T01:00:23.884Z,70.39
2019-04-26T01:02:55.949Z,70.45
2019-04-26T01:05:25.369Z,70.29
2019-04-26T01:08:03.166Z,70.02
2019-04-26T01:10:32.550Z,69.69
2019-04-26T01:13:02.038Z,69.89
2019-04-26T01:15:31.478Z,69.64
2019-04-26T01:18:01.223Z,69.48
2019-04-26T01:20:33.322Z,69.95
2019-04-26T01:23:12.595Z,70.11
2019-04-26T01:25:53.827Z,69.54
2019-04-26T01:28:32.690Z,69.94
2019-04-26T01:31:04.764Z,70.35
2019-04-26T01:33:36.337Z,70.13
2019-04-26T01:36:12.759Z,70.20
2019-04-26T01:38:37.198Z,70.38
2019-04-26T01:41:12.736Z,70.54
2019-04-26T01:44:05.700Z,70.94
2019-04-26T01:46:41.658Z,71.61
2019-04-26T01:49:14.027Z,71.10
2019-04-26T01:51:52.002Z,71.02
2019-04-26T01:54:25.697Z,71.81
2019-04-26T01:56:58.893Z,71.39
2019-04-26T01:59:29.499Z,72.40
2019-04-26T02:02:32.028Z,72.58
2019-04-26T02:05:03.783Z,72.78
2019-04-26T02:07:40.026Z,72.62
2019-04-26T02:10:15.705Z,72.32
2019-04-26T02:12:48.316Z,71.71
2019-04-26T02:15:20.021Z,71.77
2019-04-26T02:17:51.699Z,71.80
2019-04-26T02:21:21.908Z,71.71
2019-04-26T02:24:18.421Z,71.96
2019-04-26T02:26:52.850Z,71.51
2019-04-26T02:29:26.831Z,71.97
2019-04-26T02:32:00.918Z,72.11
2019-04-26T02:34:33.927Z,72.18
2019-04-26T02:37:07.149Z,72.09
2019-04-26T02:39:40.986Z,72.10
2019-04-26T02:42:28.032Z,71.96
2019-04-26T02:45:30.024Z,71.55
2019-04-26T02:48:34.777Z,72.24
2019-04-26T02:51:08.272Z,71.77
2019-04-26T02:53:51.197Z,71.39
2019-04-26T02:56:40.115Z,71.75
2019-04-26T02:59:40.700Z,71.75
2019-04-26T03:02:19.555Z,72.09
2019-04-26T03:04:52.735Z,72.00
2019-04-26T03:07:53.867Z,71.70
2019-04-26T03:10:44.485Z,71.92
2019-04-26T03:13:34.272Z,71.85
2019-04-26T03:16:18.358Z,71.74
2019-04-26T03:19:03.793Z,71.81
2019-04-26T03:21:47.582Z,71.98
2019-04-26T03:24:25.002Z,73.06
2019-04-26T03:27:21.309Z,73.84
2019-04-26T03:30:19.439Z,73.75
2019-04-26T03:33:30.236Z,74.07
2019-04-26T03:36:48.802Z,74.12
2019-04-26T03:39:34.977Z,73.77
2019-04-26T03:42:45.034Z,73.89
2019-04-26T03:45:30.924Z,73.53
2019-04-26T03:48:36.032Z,73.60
2019-04-26T03:51:11.663Z,73.39
2019-04-26T03:54:01.292Z,73.24
2019-04-26T03:57:13.591Z,73.23
2019-04-26T04:00:31.804Z,73.13
2019-04-26T04:03:39.262Z,73.09
2019-04-26T04:06:13.401Z,73.48
2019-04-26T04:08:51.507Z,74.23
2019-04-26T04:11:25.223Z,74.31
2019-04-26T04:14:42.701Z,74.19
2019-04-26T04:17:50.715Z,74.21
2019-04-26T04:21:17.795Z,74.13
2019-04-26T04:24:14.406Z,74.01
2019-04-26T04:27:10.622Z,73.90
2019-04-26T04:30:09.653Z,74.19
2019-04-26T04:32:52.401Z,74.03
2019-04-26T04:35:25.080Z,73.87
2019-04-26T04:38:08.479Z,73.61
2019-04-26T04:41:17.044Z,73.09
2019-04-26T04:43:58.855Z,72.77
2019-04-26T04:47:23.657Z,72.22
2019-04-26T04:50:06.883Z,71.85
2019-04-26T04:52:44.530Z,71.41
2019-04-26T04:55:24.262Z,71.02
2019-04-26T04:58:05.695Z,70.30
2019-04-26T05:01:07.435Z,69.67
2019-04-26T05:03:54.726Z,68.88
2019-04-26T05:06:53.365Z,68.82
2019-04-26T05:09:30.083Z,68.77
2019-04-26T05:12:35.303Z,68.23
2019-04-26T05:16:08.314Z,67.75
2019-04-26T05:19:05.890Z,67.81
2019-04-26T05:22:27.817Z,67.42
2019-04-26T05:26:33.191Z,67.19
2019-04-26T05:29:20.104Z,67.23
2019-04-26T05:32:01.253Z,67.47
2019-04-26T05:34:41.163Z,67.33
2019-04-26T05:37:39.532Z,66.97
2019-04-26T05:40:27.847Z,67.06
2019-04-26T05:43:47.447Z,67.00
2019-04-26T05:47:22.872Z,67.37
2019-04-26T05:50:45.657Z,67.40
2019-04-26T05:54:24.209Z,66.93
2019-04-26T05:57:27.979Z,66.70
2019-04-26T06:00:52.201Z,66.69
2019-04-26T06:04:04.179Z,66.74
2019-04-26T06:06:42.538Z,66.02
2019-04-26T06:09:56.538Z,65.89
2019-04-26T06:13:01.372Z,65.93
2019-04-26T06:16:02.469Z,65.22
2019-04-26T06:19:03.803Z,64.70
2019-04-26T06:21:54.478Z,63.89
2019-04-26T06:24:52.699Z,63.79
2019-04-26T06:27:56.294Z,63.45
2019-04-26T06:30:45.610Z,62.92
2019-04-26T06:33:41.458Z,62.71
2019-04-26T06:36:27.517Z,62.63
2019-04-26T06:39:32.802Z,62.34
2019-04-26T06:42:49.179Z,62.31
2019-04-26T06:46:11.787Z,62.33
2019-04-26T06:49:07.178Z,62.08
2019-04-26T06:51:43.592Z,61.83
2019-04-26T06:54:53.956Z,61.72
2019-04-26T06:58:04.836Z,61.76
2019-04-26T07:01:15.069Z,61.13
2019-04-26T07:04:22.203Z,60.76
2019-04-26T07:07:25.689Z,60.63
2019-04-26T07:10:28.432Z,60.67
2019-04-26T07:13:27.946Z,60.97
2019-04-26T07:16:41.755Z,60.80
2019-04-26T07:19:52.302Z,60.68
2019-04-26T07:22:54.197Z,60.12
2019-04-26T07:26:15.045Z,59.67
2019-04-26T07:29:09.186Z,59.39
2019-04-26T07:32:07.374Z,59.19
2019-04-26T07:35:02.632Z,59.01
2019-04-26T07:38:18.670Z,58.80
2019-04-26T07:41:30.835Z,58.85
2019-04-26T07:44:30.039Z,58.50
2019-04-26T07:48:11.624Z,58.67
2019-04-26T07:51:26.685Z,58.40
2019-04-26T07:54:37.315Z,57.83
2019-04-26T07:57:46.336Z,57.29
2019-04-26T08:00:45.179Z,57.57
2019-04-26T08:03:24.662Z,58.01
2019-04-26T08:06:01.728Z,58.28
2019-04-26T08:08:39.214Z,58.31
2019-04-26T08:11:23.070Z,58.11
2019-04-26T08:14:02.191Z,58.18
2019-04-26T08:17:05.390Z,57.73
2019-04-26T08:19:41.557Z,57.57
2019-04-26T08:22:20.357Z,57.54
2019-04-26T08:24:47.857Z,57.36
2019-04-26T08:27:23.997Z,56.98
2019-04-26T08:30:03.359Z,56.66
2019-04-26T08:32:34.842Z,56.28
2019-04-26T08:35:30.463Z,55.93
2019-04-26T08:38:16.020Z,55.82
2019-04-26T08:40:41.734Z,55.35
2019-04-26T08:43:36.762Z,54.60
2019-04-26T08:46:26.314Z,54.78
2019-04-26T08:49:23.917Z,54.27
2019-04-26T08:51:57.257Z,54.23
2019-04-26T08:54:32.622Z,54.28
2019-04-26T08:57:29.059Z,54.40
2019-04-26T09:00:00.759Z,54.55
2019-04-26T09:02:51.015Z,54.04
2019-04-26T09:05:45.664Z,53.73
2019-04-26T09:08:17.053Z,53.59
2019-04-26T09:10:50.573Z,53.46
2019-04-26T09:13:23.096Z,53.31
2019-04-26T09:16:15.096Z,53.21
2019-04-26T09:18:52.403Z,53.02
2019-04-26T09:21:23.793Z,52.09
2019-04-26T09:24:27.200Z,51.73
2019-04-26T09:27:13.473Z,51.92
2019-04-26T09:29:51.806Z,51.36
2019-04-26T09:32:27.912Z,51.54
2019-04-26T09:34:56.421Z,51.64
2019-04-26T09:37:26.065Z,51.70
2019-04-26T09:39:55.612Z,51.77
2019-04-26T09:42:32.469Z,51.50
2019-04-26T09:45:39.403Z,51.27
2019-04-26T09:48:17.696Z,50.97
2019-04-26T09:50:48.898Z,50.55
2019-04-26T09:53:21.989Z,50.64
2019-04-26T09:55:51.400Z,50.92
2019-04-26T09:58:23.081Z,50.45
2019-04-26T10:00:52.478Z,50.23
2019-04-26T10:03:22.015Z,50.13
2019-04-26T10:05:55.622Z,50.12
2019-04-26T10:08:23.449Z,50.08
2019-04-26T10:10:53.874Z,49.76
2019-04-26T10:13:45.293Z,50.23
2019-04-26T10:16:33.504Z,49.81
2019-04-26T10:19:09.236Z,49.69
2019-04-26T10:21:38.643Z,49.92
2019-04-26T10:24:08.652Z,49.62
2019-04-26T10:26:38.333Z,49.37
2019-04-26T10:29:07.697Z,49.36
2019-04-26T10:31:37.076Z,48.80
2019-04-26T10:34:07.767Z,48.46
2019-04-26T10:36:37.632Z,48.17
2019-04-26T10:39:10.693Z,48.01
2019-04-26T10:41:41.039Z,48.31
2019-04-26T10:44:10.466Z,48.17
2019-04-26T10:46:40.085Z,48.18
2019-04-26T10:49:43.213Z,48.54
2019-04-26T10:52:36.341Z,47.91
2019-04-26T10:55:40.963Z,47.87
2019-04-26T10:58:18.357Z,47.92
2019-04-26T11:00:52.625Z,47.72
2019-04-26T11:03:22.039Z,47.63
2019-04-26T11:05:55.383Z,47.16
2019-04-26T11:08:24.985Z,47.59
2019-04-26T11:10:55.978Z,47.27
2019-04-26T11:13:26.382Z,46.57
2019-04-26T11:15:55.861Z,46.52
2019-04-26T11:18:27.437Z,46.83
2019-04-26T11:20:56.443Z,46.38
2019-04-26T11:23:26.204Z,46.33
2019-04-26T11:25:57.850Z,46.14
2019-04-26T11:28:27.154Z,46.06
2019-04-26T11:30:57.519Z,46.05
2019-04-26T11:33:30.480Z,45.79
2019-04-26T11:36:03.382Z,45.58
2019-04-26T11:38:32.494Z,45.38
2019-04-26T11:41:06.151Z,45.81
2019-04-26T11:43:33.371Z,45.63
2019-04-26T11:46:04.512Z,45.44
2019-04-26T11:48:34.054Z,44.93
2019-04-26T11:51:03.425Z,45.11
2019-04-26T11:53:33.526Z,44.98
2019-04-26T11:56:04.512Z,44.93
2019-04-26T11:58:34.594Z,44.99
2019-04-26T12:01:05.649Z,44.85
2019-04-26T12:03:35.114Z,44.39
2019-04-26T12:06:24.381Z,43.64
2019-04-26T12:08:59.621Z,43.71
2019-04-26T12:11:35.014Z,43.30
2019-04-26T12:14:03.989Z,43.61
2019-04-26T12:16:48.116Z,43.66
2019-04-26T12:19:14.244Z,43.65
2019-04-26T12:21:41.891Z,43.44
2019-04-26T12:24:11.323Z,43.23
2019-04-26T12:26:43.120Z,42.96
2019-04-26T12:29:14.688Z,42.46
2019-04-26T12:31:46.935Z,42.38
2019-04-26T12:34:17.946Z,42.19
2019-04-26T12:36:47.446Z,41.79
2019-04-26T12:39:17.680Z,41.82
2019-04-26T12:41:47.300Z,41.55
2019-04-26T12:44:16.899Z,41.57
2019-04-26T12:47:05.218Z,41.63
2019-04-26T12:49:35.509Z,41.07
2019-04-26T12:52:05.149Z,41.15
2019-04-26T12:54:34.647Z,41.54
2019-04-26T12:57:05.951Z,40.58
2019-04-26T12:59:43.976Z,40.67
2019-04-26T13:02:06.688Z,40.87
2019-04-26T13:04:36.728Z,40.56
2019-04-26T13:07:22.623Z,40.85
2019-04-26T13:10:03.367Z,41.15
2019-04-26T13:12:44.413Z,41.44
2019-04-26T13:15:50.304Z,41.33
2019-04-26T13:18:21.095Z,40.87
2019-04-26T13:20:50.490Z,40.84
2019-04-26T13:23:20.015Z,40.69
2019-04-26T13:25:49.411Z,41.00
2019-04-26T13:28:20.269Z,40.96
2019-04-26T13:30:49.889Z,40.90
2019-04-26T13:33:23.130Z,41.24
2019-04-26T13:36:02.521Z,40.84
2019-04-26T13:38:25.245Z,40.67
2019-04-26T13:40:54.778Z,40.55
2019-04-26T13:43:26.982Z,40.25
2019-04-26T13:46:20.828Z,40.00
2019-04-26T13:49:18.173Z,40.50
2019-04-26T13:51:46.376Z,40.70
2019-04-26T13:54:16.521Z,40.53
2019-04-26T13:56:47.342Z,40.28
2019-04-26T13:59:16.983Z,40.35
2019-04-26T14:01:46.454Z,40.10
2019-04-26T14:04:16.040Z,40.31
2019-04-26T14:06:45.435Z,40.39
2019-04-26T14:09:15.896Z,40.44
2019-04-26T14:11:45.795Z,40.25
2019-04-26T14:14:15.323Z,40.46
2019-04-26T14:16:45.002Z,40.05
2019-04-26T14:19:16.718Z,39.89
2019-04-26T14:21:45.913Z,40.25
2019-04-26T14:24:40.300Z,39.75
2019-04-26T14:27:16.655Z,39.93
2019-04-26T14:29:48.872Z,40.14
2019-04-26T14:32:23.029Z,40.04
2019-04-26T14:34:49.998Z,39.78
2019-04-26T14:37:19.473Z,39.91
2019-04-26T14:39:51.083Z,40.20
2019-04-26T14:42:32.959Z,40.12
2019-04-26T14:44:52.229Z,40.21
2019-04-26T14:47:21.821Z,39.93
2019-04-26T14:49:53.449Z,40.04
2019-04-26T14:52:27.778Z,40.22
2019-04-26T14:54:58.125Z,40.40
2019-04-26T14:57:31.441Z,40.56
2019-04-26T14:59:59.775Z,40.24
2019-04-26T15:02:56.342Z,40.16
2019-04-26T15:05:30.847Z,40.12
2019-04-26T15:08:05.401Z,40.12
2019-04-26T15:10:44.354Z,40.17
2019-04-26T15:13:19.973Z,40.14
2019-04-26T15:15:43.329Z,39.68
2019-04-26T15:18:13.251Z,39.82
2019-04-26T15:20:43.831Z,40.76
2019-04-26T15:23:13.406Z,41.26
2019-04-26T15:25:48.415Z,41.75
2019-04-26T15:28:14.650Z,42.00
2019-04-26T15:30:46.800Z,41.80
2019-04-26T15:33:15.327Z,41.96
2019-04-26T15:35:47.734Z,42.22
2019-04-26T15:38:23.537Z,42.45
2019-04-26T15:41:16.703Z,42.68
2019-04-26T15:43:53.006Z,42.60
2019-04-26T15:46:42.566Z,42.54
2019-04-26T15:49:36.830Z,42.96
2019-04-26T15:52:07.046Z,43.29
2019-04-26T15:54:36.412Z,43.56
2019-04-26T15:57:06.640Z,43.69
2019-04-26T15:59:36.187Z,43.92
2019-04-26T16:02:06.614Z,44.05
2019-04-26T16:04:36.115Z,44.10
2019-04-26T16:07:06.407Z,43.98
2019-04-26T16:09:36.246Z,44.15
2019-04-26T16:12:06.525Z,44.24
2019-04-26T16:14:36.962Z,44.15
2019-04-26T16:17:06.879Z,44.17
2019-04-26T16:19:36.358Z,43.13
2019-04-26T16:22:06.616Z,42.14
2019-04-26T16:24:35.965Z,41.00
2019-04-26T16:27:05.595Z,40.16
2019-04-26T16:32:52.615Z,38.43
2019-04-26T16:35:28.310Z,37.89
2019-04-26T16:38:00.060Z,37.58
2019-04-26T16:40:29.964Z,37.07
2019-04-26T16:42:59.826Z,37.15
2019-04-26T16:45:29.532Z,37.71
2019-04-26T16:47:59.028Z,38.13
2019-04-26T16:50:31.585Z,38.40
2019-04-26T16:52:59.540Z,38.52
2019-04-26T16:55:28.945Z,38.82
2019-04-26T16:57:58.414Z,39.37
2019-04-26T17:00:31.755Z,39.59
2019-04-26T17:00:48.277Z,39.85
2019-04-26T17:05:47.887Z,40.84
2019-04-26T17:08:05.156Z,41.27
2019-04-26T17:09:51.073Z,40.41
2019-04-26T17:10:37.976Z,41.34
2019-04-26T17:13:08.870Z,41.51
2019-04-26T17:15:38.295Z,41.82
2019-04-26T17:18:07.950Z,42.48
2019-04-26T17:20:40.432Z,43.19
2019-04-26T17:23:42.979Z,44.08
2019-04-26T17:26:36.221Z,45.19
2019-04-26T17:29:04.561Z,46.21
2019-04-26T17:31:34.015Z,46.96
2019-04-26T17:34:05.219Z,47.70
2019-04-26T17:36:35.280Z,48.29
2019-04-26T17:39:10.978Z,48.74
2019-04-26T17:41:43.267Z,48.93
2019-04-26T17:44:13.069Z,49.52
2019-04-26T17:46:41.606Z,50.09
2019-04-26T17:49:11.220Z,50.49
2019-04-26T17:51:44.144Z,50.86
2019-04-26T17:54:33.553Z,51.22
2019-04-26T17:56:43.024Z,51.56
2019-04-26T17:59:30.161Z,51.78
2019-04-26T18:01:48.058Z,52.07
2019-04-26T18:04:15.023Z,52.73
2019-04-26T18:06:54.450Z,53.08
2019-04-26T18:09:38.013Z,53.50
2019-04-26T18:11:47.619Z,53.86
2019-04-26T18:14:21.487Z,54.22
2019-04-26T18:16:57.173Z,54.51
2019-04-26T18:19:39.087Z,54.83
2019-04-26T18:22:15.907Z,55.32
2019-04-26T18:24:45.403Z,55.69
2019-04-26T18:27:14.929Z,56.24
2019-04-26T18:29:45.016Z,56.50
2019-04-26T18:32:14.657Z,57.02
2019-04-26T18:34:44.092Z,57.31
2019-04-26T18:37:13.652Z,57.71
2019-04-26T18:39:44.441Z,58.12
2019-04-26T18:42:14.017Z,58.47
2019-04-26T18:44:47.812Z,58.46
2019-04-26T18:47:26.295Z,58.90
2019-04-26T18:49:58.084Z,58.89
2019-04-26T18:52:26.316Z,59.41
2019-04-26T18:55:05.764Z,59.55
2019-04-26T18:57:40.354Z,60.03
2019-04-26T19:00:14.364Z,60.46
2019-04-26T19:02:43.971Z,60.81
2019-04-26T19:05:15.856Z,61.31
2019-04-26T19:07:50.080Z,61.42
2019-04-26T19:10:21.493Z,61.72
2019-04-26T19:12:52.408Z,61.99
2019-04-26T19:15:43.358Z,62.06
2019-04-26T19:18:17.716Z,62.51
2019-04-26T19:20:56.026Z,62.70
2019-04-26T19:23:28.963Z,62.92
2019-04-26T19:25:57.343Z,63.00
2019-04-26T19:28:27.484Z,63.13
2019-04-26T19:30:57.014Z,63.27
2019-04-26T19:33:29.392Z,63.32
2019-04-26T19:35:58.853Z,63.55
2019-04-26T19:38:28.539Z,63.56
2019-04-26T19:40:58.307Z,63.64
2019-04-26T19:43:32.864Z,63.83
2019-04-26T19:46:16.960Z,63.97
2019-04-26T19:49:25.698Z,64.09
2019-04-26T19:52:24.325Z,64.22
2019-04-26T19:55:28.074Z,64.45
2019-04-26T19:58:03.526Z,64.41
2019-04-26T20:00:33.076Z,64.34
2019-04-26T20:03:02.530Z,64.34
2019-04-26T20:05:32.128Z,64.42
2019-04-26T20:08:04.597Z,64.51
2019-04-26T20:10:36.211Z,64.56
2019-04-26T20:13:07.619Z,64.80
2019-04-26T20:15:37.645Z,64.90
2019-04-26T20:18:07.030Z,64.97
2019-04-26T20:20:36.528Z,65.18
2019-04-26T20:23:07.840Z,65.16
2019-04-26T20:25:37.094Z,65.55
2019-04-26T20:28:09.484Z,65.64
2019-04-26T20:31:10.222Z,65.99
2019-04-26T20:33:44.250Z,66.34
2019-04-26T20:36:13.840Z,66.26
2019-04-26T20:38:47.291Z,66.50
2019-04-26T20:41:16.457Z,66.46
2019-04-26T20:43:56.604Z,66.41
2019-04-26T20:46:23.027Z,66.47
2019-04-26T20:48:52.080Z,66.55
2019-04-26T20:51:24.263Z,66.54
2019-04-26T20:53:53.820Z,66.52
2019-04-26T20:56:23.354Z,66.56
2019-04-26T20:58:52.929Z,66.65
2019-04-26T21:01:22.541Z,66.65
2019-04-26T21:03:52.229Z,66.79
2019-04-26T21:06:22.316Z,66.91
2019-04-26T21:08:54.043Z,66.96
2019-04-26T21:11:23.437Z,67.10
2019-04-26T21:13:55.199Z,67.02
2019-04-26T21:16:26.781Z,67.09
2019-04-26T21:18:56.524Z,67.10
2019-04-26T21:21:26.149Z,67.26
2019-04-26T21:23:55.553Z,67.45
2019-04-26T21:26:46.630Z,67.55
2019-04-26T21:29:41.621Z,67.56
2019-04-26T21:32:30.743Z,67.66
2019-04-26T21:35:03.528Z,67.80
2019-04-26T21:37:53.960Z,68.00
2019-04-26T21:40:29.226Z,68.06
2019-04-26T21:42:59.509Z,68.23
2019-04-26T21:45:31.127Z,68.46
2019-04-26T21:48:02.563Z,68.45
2019-04-26T21:50:44.474Z,68.45
2019-04-26T21:53:14.078Z,68.47
2019-04-26T21:55:43.549Z,68.45
2019-04-26T21:58:15.163Z,68.59
2019-04-26T22:00:56.720Z,68.52
2019-04-26T22:03:26.546Z,68.57
2019-04-26T22:06:01.143Z,68.63
2019-04-26T22:08:34.731Z,68.65
2019-04-26T22:11:04.423Z,68.47
2019-04-26T22:13:44.736Z,68.54
2019-04-26T22:16:32.007Z,68.65
2019-04-26T22:19:05.554Z,68.62
2019-04-26T22:21:44.479Z,68.73
2019-04-26T22:24:29.944Z,68.72
2019-04-26T22:26:59.479Z,68.73
2019-04-26T22:29:28.920Z,68.71
2019-04-26T22:31:58.769Z,68.65
2019-04-26T22:34:28.364Z,68.71
2019-04-26T22:37:11.584Z,68.89
2019-04-26T22:39:39.917Z,69.02
2019-04-26T22:42:10.363Z,69.13
2019-04-26T22:44:53.797Z,69.13
2019-04-26T22:47:27.548Z,69.36
2019-04-26T22:49:59.045Z,69.80
2019-04-26T22:52:28.391Z,70.11
2019-04-26T22:54:58.026Z,70.29
2019-04-26T22:57:27.800Z,70.33
2019-04-26T22:59:57.275Z,70.47
2019-04-26T23:02:27.597Z,70.53
2019-04-26T23:05:00.617Z,70.57
2019-04-26T23:07:28.644Z,70.73
2019-04-26T23:09:58.556Z,70.79
2019-04-26T23:12:47.304Z,70.94
2019-04-26T23:15:43.340Z,71.17
2019-04-26T23:18:38.724Z,71.07
2019-04-26T23:21:14.922Z,71.24
2019-04-26T23:23:44.282Z,71.40
2019-04-26T23:26:14.493Z,71.48
2019-04-26T23:28:44.151Z,71.59
2019-04-26T23:31:13.701Z,71.71
2019-04-26T23:33:43.190Z,71.81
2019-04-26T23:36:13.603Z,71.69
2019-04-26T23:38:43.820Z,71.79
2019-04-26T23:41:14.179Z,71.83
2019-04-26T23:43:44.852Z,71.95
2019-04-26T23:46:14.738Z,72.12
2019-04-26T23:48:48.659Z,72.35
2019-04-26T23:51:15.848Z,72.64
2019-04-26T23:53:45.216Z,72.87
2019-04-26T23:56:21.662Z,73.01
2019-04-26T23:58:46.064Z,73.04
